Dades meteomassalio
Diari Summary for Noviembre 8, 2017 Units:  Metric    English   Both
« Previous Day
Next Day »
Diari Semanal Mensual Anual Personalitzat
  Maxima: Minima: Mijana:
Temperatura: -17.8 °C -14.4 °C -12 °C
Rosada: -17.8 °C -16.8 °C -15.7 °C
Humitat: Humidity % 50 % 64 %
Velocitat del vent: 0 km/h 9 km/h 50.2 km/h
Racha vent: 0 km/h - -
Vent:- - NW
Pressio: 0 hPa 34591.4 hPa -
Pluja: 0 mm    
Historical Graphs
 
 
Tabular Data for Noviembre 8, 2017
Time Temperature Dew Point Pressure Wind Wind Speed Wind Gust Humidity Rainfall Rate (Hourly) solar Conditions
-17.8 °C -17.8 °C 0 hPa Calm     Humidity % 0 mm SolarRadiationWatts/m^2 W/m2 Conditions
00:02 -11.9 °C -16.3 °C 34601.5 hPa NW 47.6 km/h 47.6 km/h 58 % 0 mm 0.0 W/m2 CLR
00:07 -11.9 °C -16.2 °C 34591.4 hPa NW 68.6 km/h 68.6 km/h 59 % 0 mm 0.0 W/m2 CLR
00:12 -11.9 °C -16.2 °C 34601.5 hPa NW 59.5 km/h 59.5 km/h 59 % 0 mm 0.0 W/m2 CLR
00:17 -11.9 °C -16.1 °C 34601.5 hPa NNW 59.5 km/h 59.5 km/h 60 % 0 mm 0.0 W/m2 CLR
00:22 -11.9 °C -16.1 °C 34601.5 hPa NW 57 km/h 57 km/h 60 % 0 mm 0.0 W/m2 CLR
00:27 -11.9 °C -15.9 °C 34601.5 hPa NNW 68.6 km/h 68.6 km/h 61 % 0 mm 0.0 W/m2 CLR
00:37 -11.9 °C -15.9 °C 34601.5 hPa NW 65.5 km/h 65.5 km/h 61 % 0 mm 0.0 W/m2 CLR
00:42 -11.9 °C -15.8 °C 34601.5 hPa NW 65.5 km/h 65.5 km/h 62 % 0 mm 0.0 W/m2 CLR
00:47 -11.9 °C -15.8 °C 34601.5 hPa NNW 53.6 km/h 53.6 km/h 62 % 0 mm 0.0 W/m2 CLR
00:52 -11.9 °C -15.7 °C 34601.5 hPa NNW 50.7 km/h 50.7 km/h 63 % 0 mm 0.0 W/m2 CLR
00:57 -11.9 °C -15.7 °C 34601.5 hPa NW 57 km/h 57 km/h 63 % 0 mm 0.0 W/m2 CLR
01:02 -11.9 °C -15.6 °C 34601.5 hPa NNW 65.5 km/h 65.5 km/h 64 % 0 mm 0.0 W/m2 CLR
01:07 -11.9 °C -15.4 °C 34601.5 hPa WNW 62.6 km/h 62.6 km/h 65 % 0 mm 0.0 W/m2 CLR
01:12 -11.9 °C -15.4 °C 34611.7 hPa NNW 56.6 km/h 56.6 km/h 65 % 0 mm 0.0 W/m2 CLR
01:17 -11.9 °C -15.4 °C 34611.7 hPa WNW 50.7 km/h 50.7 km/h 65 % 0 mm 0.0 W/m2 CLR
01:22 -11.9 °C -15.3 °C 34601.5 hPa NNW 62.1 km/h 62.1 km/h 66 % 0 mm 0.0 W/m2 CLR
01:28 -11.9 °C -15.3 °C 34601.5 hPa NNW 50.7 km/h 50.7 km/h 66 % 0 mm 0.0 W/m2 CLR
01:38 -11.9 °C -15.2 °C 34601.5 hPa NW 68.6 km/h 68.6 km/h 67 % 0 mm 0.0 W/m2 CLR
01:43 -11.6 °C -15 °C 34611.7 hPa NW 68.6 km/h 68.6 km/h 66 % 0 mm 0.0 W/m2 CLR
01:48 -11.6 °C -14.9 °C 34611.7 hPa NW 51.8 km/h 51.8 km/h 67 % 0 mm 0.0 W/m2 CLR
01:53 -11.9 °C -15.2 °C 34611.7 hPa NNW 47.6 km/h 47.6 km/h 67 % 0 mm 0.0 W/m2 CLR
01:58 -11.9 °C -15.1 °C 34611.7 hPa NW 47.6 km/h 47.6 km/h 68 % 0 mm 0.0 W/m2 CLR
02:03 -11.9 °C -15.1 °C 34611.7 hPa NW 50.7 km/h 50.7 km/h 68 % 0 mm 0.0 W/m2 CLR
02:08 -11.6 °C -14.8 °C 34611.7 hPa NNW 62.6 km/h 62.6 km/h 68 % 0 mm 0.0 W/m2 CLR
02:13 -11.6 °C -14.8 °C 34611.7 hPa NW 53.6 km/h 53.6 km/h 68 % 0 mm 0.0 W/m2 CLR
02:18 -11.6 °C -14.8 °C 34625.2 hPa NNW 41.7 km/h 41.7 km/h 68 % 0 mm 0.0 W/m2 CLR
02:23 -11.6 °C -14.8 °C 34625.2 hPa NW 50.7 km/h 50.7 km/h 68 % 0 mm 0.0 W/m2 CLR
02:28 -11.6 °C -14.7 °C 34625.2 hPa NW 50.7 km/h 50.7 km/h 69 % 0 mm 0.0 W/m2 CLR
02:33 -11.6 °C -14.7 °C 34625.2 hPa WNW 47.6 km/h 47.6 km/h 69 % 0 mm 0.0 W/m2 CLR
02:38 -11.6 °C -14.7 °C 34625.2 hPa NNW 50.7 km/h 50.7 km/h 69 % 0 mm 0.0 W/m2 CLR
02:43 -11.6 °C -14.7 °C 34625.2 hPa NW 38.8 km/h 38.8 km/h 69 % 0 mm 0.0 W/m2 CLR
02:48 -11.6 °C -14.7 °C 34625.2 hPa NW 50.7 km/h 50.7 km/h 69 % 0 mm 0.0 W/m2 CLR
02:53 -11.6 °C -14.7 °C 34625.2 hPa NW 35.7 km/h 35.7 km/h 69 % 0 mm 0.0 W/m2 CLR
02:58 -11.6 °C -14.6 °C 34635.4 hPa NW 29.8 km/h 29.8 km/h 70 % 0 mm 0.0 W/m2 CLR
03:08 -11.6 °C -14.6 °C 34635.4 hPa NNW 47.6 km/h 47.6 km/h 70 % 0 mm 0.0 W/m2 CLR
03:13 -11.6 °C -14.4 °C 34635.4 hPa NNW 44.7 km/h 44.7 km/h 71 % 0 mm 0.0 W/m2 CLR
03:18 -11.6 °C -14.4 °C 34625.2 hPa NW 35.7 km/h 35.7 km/h 71 % 0 mm 0.0 W/m2 CLR
03:23 -11.6 °C -14.4 °C 34625.2 hPa WNW 38.8 km/h 38.8 km/h 71 % 0 mm 0.0 W/m2 CLR
03:28 -11.6 °C -14.4 °C 34625.2 hPa NW 33.6 km/h 33.6 km/h 71 % 0 mm 0.0 W/m2 CLR
03:38 -11.9 °C -14.6 °C 34635.4 hPa NW 50.7 km/h 50.7 km/h 72 % 0 mm 0.0 W/m2 CLR
03:48 -11.9 °C -14.6 °C 34635.4 hPa NW 41.7 km/h 41.7 km/h 72 % 0 mm 0.0 W/m2 CLR
03:53 -11.9 °C -14.7 °C 34635.4 hPa NNW 44.7 km/h 44.7 km/h 71 % 0 mm 0.0 W/m2 CLR
03:58 -11.9 °C -14.7 °C 34625.2 hPa NNW 47.6 km/h 47.6 km/h 71 % 0 mm 0.0 W/m2 CLR
04:03 -11.9 °C -14.7 °C 34625.2 hPa North 59.5 km/h 59.5 km/h 71 % 0 mm 0.0 W/m2 CLR
04:08 -11.9 °C -14.7 °C 34625.2 hPa North 47.6 km/h 47.6 km/h 71 % 0 mm 0.0 W/m2 CLR
04:14 -11.9 °C -14.7 °C 34625.2 hPa NW 41.7 km/h 41.7 km/h 71 % 0 mm 0.0 W/m2 CLR
04:19 -11.9 °C -14.7 °C 34635.4 hPa NNW 41.7 km/h 41.7 km/h 71 % 0 mm 0.0 W/m2 CLR
04:20 -11.9 °C -14.7 °C 34635.4 hPa WNW 41.7 km/h 41.7 km/h 71 % 0 mm 0.0 W/m2 CLR
04:21 -11.9 °C -14.7 °C 34635.4 hPa NW 38.8 km/h 38.8 km/h 71 % 0 mm 0.0 W/m2 CLR
04:26 -11.9 °C -14.7 °C 34635.4 hPa NNW 33.6 km/h 33.6 km/h 71 % 0 mm 0.0 W/m2 CLR
04:31 -11.9 °C -14.7 °C 34635.4 hPa North 31.1 km/h 31.1 km/h 71 % 0 mm 0.0 W/m2 CLR
04:36 -11.9 °C -14.7 °C 34635.4 hPa NNW 35.7 km/h 35.7 km/h 71 % 0 mm 0.0 W/m2 CLR
04:46 -12.2 °C -14.9 °C 34635.4 hPa NW 20.9 km/h 20.9 km/h 72 % 0 mm 0.0 W/m2 CLR
04:51 -12.2 °C -14.9 °C 34635.4 hPa NNW 20.9 km/h 20.9 km/h 72 % 0 mm 0.0 W/m2 CLR
04:56 -12.2 °C -14.9 °C 34635.4 hPa NW 20.9 km/h 20.9 km/h 72 % 0 mm 0.0 W/m2 CLR
05:01 -12.2 °C -15 °C 34635.4 hPa NNW 26.9 km/h 26.9 km/h 71 % 0 mm 0.0 W/m2 CLR
05:06 -12.2 °C -15 °C 34635.4 hPa NNW 29.8 km/h 29.8 km/h 71 % 0 mm 0.0 W/m2 CLR
05:11 -12.2 °C -15.1 °C 34635.4 hPa NW 29.8 km/h 29.8 km/h 70 % 0 mm 0.0 W/m2 CLR
05:16 -12.2 °C -15.2 °C 34635.4 hPa NNW 29.8 km/h 29.8 km/h 69 % 0 mm 0.0 W/m2 CLR
05:21 -12.2 °C -15.2 °C 34635.4 hPa ESE 29.8 km/h 29.8 km/h 69 % 0 mm 0.0 W/m2 CLR
05:26 -12.2 °C -15.4 °C 34635.4 hPa NW 9 km/h   68 % 0 mm 0.0 W/m2 CLR
05:31 -12.2 °C -15.4 °C 34635.4 hPa NNW 35.7 km/h 35.7 km/h 67 % 0 mm 0.0 W/m2 CLR
05:36 -12.2 °C -15.4 °C 34635.4 hPa WNW 29.8 km/h 29.8 km/h 67 % 0 mm 0.0 W/m2 CLR
05:37 -12.2 °C -15.6 °C 34635.4 hPa NNW 38.8 km/h 38.8 km/h 66 % 0 mm 0.0 W/m2 CLR
05:42 -12.2 °C -15.6 °C 34635.4 hPa NNW 38.8 km/h 38.8 km/h 66 % 0 mm 0.0 W/m2 CLR
05:47 -11.9 °C -15.4 °C 34635.4 hPa North 26.9 km/h 26.9 km/h 65 % 0 mm 0.0 W/m2 CLR
05:52 -11.9 °C -15.4 °C 34635.4 hPa North 29.8 km/h 29.8 km/h 65 % 0 mm 0.0 W/m2 CLR
05:57 -12.2 °C -15.7 °C 34635.4 hPa NW 29.8 km/h 29.8 km/h 65 % 0 mm 0.0 W/m2 CLR
06:02 -12.2 °C -15.7 °C 34635.4 hPa North 29.8 km/h 29.8 km/h 65 % 0 mm 0.0 W/m2 CLR
06:07 -12.6 °C -16 °C 34635.4 hPa NW 32.8 km/h 32.8 km/h 65 % 0 mm 0.0 W/m2 CLR
06:12 -12.6 °C -15.9 °C 34635.4 hPa NNW 20.9 km/h 20.9 km/h 66 % 0 mm 0.0 W/m2 CLR
06:17 -12.6 °C -15.9 °C 34635.4 hPa WNW 23.8 km/h 23.8 km/h 66 % 0 mm 0.0 W/m2 CLR
06:22 -12.6 °C -15.9 °C 34635.4 hPa West 41.4 km/h 41.4 km/h 66 % 0 mm 0.0 W/m2 CLR
06:27 -12.6 °C -15.8 °C 34635.4 hPa NW 38.8 km/h 38.8 km/h 67 % 0 mm 0.0 W/m2 CLR
06:32 -12.6 °C -15.7 °C 34645.6 hPa NW 38.8 km/h 38.8 km/h 68 % 0 mm 0.0 W/m2 CLR
06:37 -12.6 °C -15.7 °C 34645.6 hPa NW 38.8 km/h 38.8 km/h 68 % 0 mm 0.0 W/m2 CLR
06:42 -12.6 °C -15.7 °C 34635.4 hPa NNW 38.8 km/h 38.8 km/h 68 % 0 mm 0.0 W/m2 CLR
06:43 -12.6 °C -15.7 °C 34635.4 hPa NW 38.8 km/h 38.8 km/h 68 % 0 mm 0.0 W/m2 CLR
06:48 -12.6 °C -15.5 °C 34635.4 hPa NW 35.7 km/h 35.7 km/h 69 % 0 mm 0.0 W/m2 CLR
06:53 -12.6 °C -15.5 °C 34635.4 hPa NW 44.7 km/h 44.7 km/h 69 % 0 mm 0.0 W/m2 CLR
06:58 -12.6 °C -15.5 °C 34635.4 hPa WNW 36.2 km/h 36.2 km/h 69 % 0 mm 0.0 W/m2 CLR
07:03 -12.6 °C -15.5 °C 34635.4 hPa WNW 46.7 km/h 46.7 km/h 69 % 0 mm 0.0 W/m2 CLR
07:08 -12.6 °C -15.5 °C 34635.4 hPa NW 47.6 km/h 47.6 km/h 69 % 0 mm 0.0 W/m2 CLR
07:13 -12.6 °C -15.5 °C 34635.4 hPa NNW 59.5 km/h 59.5 km/h 69 % 0 mm 0.0 W/m2 CLR
07:18 -12.6 °C -15.5 °C 34635.4 hPa NW 65.5 km/h 65.5 km/h 69 % 0 mm 0.0 W/m2 CLR
07:23 -12.6 °C -15.5 °C 34645.6 hPa NW 49.2 km/h 49.2 km/h 69 % 0 mm 0.0 W/m2 CLR
07:28 -12.6 °C -15.5 °C 34645.6 hPa NW 44.7 km/h 44.7 km/h 69 % 0 mm 0.0 W/m2 CLR
07:33 -12.6 °C -15.5 °C 34645.6 hPa NW 38.8 km/h 38.8 km/h 69 % 0 mm 0.0 W/m2 OVC
07:38 -12.6 °C -15.4 °C 34645.6 hPa NW 47.6 km/h 47.6 km/h 70 % 0 mm 0.0 W/m2 OVC
07:43 -12.6 °C -15.4 °C 34645.6 hPa NW 41.7 km/h 41.7 km/h 70 % 0 mm 7.0 W/m2 OVC
07:48 -12.6 °C -15.4 °C 34645.6 hPa WNW 41.7 km/h 41.7 km/h 70 % 0 mm 7.0 W/m2 OVC
07:53 -12.6 °C -15.4 °C 34659.1 hPa NNW 59.5 km/h 59.5 km/h 70 % 0 mm 11.0 W/m2 OVC
07:58 -12.6 °C -15.4 °C 34659.1 hPa NW 68.6 km/h 68.6 km/h 70 % 0 mm 14.0 W/m2 OVC
08:03 -12.6 °C -15.4 °C 34659.1 hPa NW 50.7 km/h 50.7 km/h 70 % 0 mm 16.0 W/m2 OVC
08:08 -12.8 °C -15.7 °C 34659.1 hPa NW 38.8 km/h 38.8 km/h 70 % 0 mm 21.0 W/m2 OVC
08:13 -12.6 °C -15.5 °C 34659.1 hPa NW 50.7 km/h 50.7 km/h 69 % 0 mm 28.0 W/m2 OVC
08:18 -12.6 °C -15.5 °C 34659.1 hPa NW 38.8 km/h 38.8 km/h 69 % 0 mm 32.0 W/m2 OVC
08:23 -12.6 °C -15.5 °C 34669.3 hPa WNW 41.7 km/h 41.7 km/h 69 % 0 mm 16.0 W/m2 OVC
08:28 -12.6 °C -15.5 °C 34669.3 hPa NW 38.8 km/h 38.8 km/h 69 % 0 mm 16.0 W/m2 OVC
08:33 -12.6 °C -15.4 °C 34682.8 hPa NNW 38.8 km/h 38.8 km/h 70 % 0 mm 18.0 W/m2 OVC
08:43 -12.8 °C -15.7 °C 34682.8 hPa NW 38.8 km/h 38.8 km/h 70 % 0 mm 21.0 W/m2 BKN
08:48 -12.8 °C -15.7 °C 34682.8 hPa NW 36.2 km/h 36.2 km/h 70 % 0 mm 81.0 W/m2 BKN
08:53 -12.6 °C -15.4 °C 34682.8 hPa NNW 41.7 km/h 41.7 km/h 70 % 0 mm 128.0 W/m2 SCT
08:58 -12.6 °C -15.4 °C 34682.8 hPa North 50.7 km/h 50.7 km/h 70 % 0 mm 144.0 W/m2 CLR
09:03 -12.2 °C -15.2 °C 34682.8 hPa WNW 47.6 km/h 47.6 km/h 69 % 0 mm 171.0 W/m2 CLR
09:08 -12.2 °C -15.4 °C 34682.8 hPa NW 86.4 km/h 86.4 km/h 68 % 0 mm 137.0 W/m2 CLR
09:13 -12.2 °C -15.4 °C 34682.8 hPa NNW 68.6 km/h 68.6 km/h 68 % 0 mm 104.0 W/m2 CLR
09:18 -11.9 °C -15.2 °C 34682.8 hPa NW 71.5 km/h 71.5 km/h 67 % 0 mm 167.0 W/m2 CLR
09:23 -11.9 °C -15.2 °C 34682.8 hPa NW 47.6 km/h 47.6 km/h 67 % 0 mm 232.0 W/m2 CLR
09:28 -11.9 °C -15.2 °C 34682.8 hPa NW 53.6 km/h 53.6 km/h 67 % 0 mm 250.0 W/m2 CLR
09:33 -11.9 °C -15.3 °C 34693 hPa NW 56.6 km/h 56.6 km/h 66 % 0 mm 262.0 W/m2 CLR
09:38 -11.9 °C -15.4 °C 34693 hPa NNW 50.7 km/h 50.7 km/h 65 % 0 mm 276.0 W/m2 CLR
09:43 -11.9 °C -15.4 °C 34682.8 hPa NW 50.7 km/h 50.7 km/h 65 % 0 mm 285.0 W/m2 CLR
09:48 -11.6 °C -15.2 °C 34693 hPa NNW 49.2 km/h 49.2 km/h 64 % 0 mm 304.0 W/m2 CLR
09:53 -11.6 °C -15.4 °C 34682.8 hPa NW 59.5 km/h 59.5 km/h 63 % 0 mm 316.0 W/m2 CLR
09:58 -11.6 °C -15.5 °C 34682.8 hPa NNW 59.5 km/h 59.5 km/h 62 % 0 mm 329.0 W/m2 CLR
10:03 -11.6 °C -15.5 °C 34693 hPa NNW 53.6 km/h 53.6 km/h 62 % 0 mm 338.0 W/m2 CLR
10:08 -11.6 °C -15.5 °C 34682.8 hPa North 50.7 km/h 50.7 km/h 62 % 0 mm 355.0 W/m2 CLR
10:13 -11.3 °C -15.3 °C 34693 hPa NW 65.5 km/h 65.5 km/h 61 % 0 mm 369.0 W/m2 CLR
10:18 -11.3 °C -15.4 °C 34682.8 hPa NNW 50.7 km/h 50.7 km/h 60 % 0 mm 401.0 W/m2 CLR
10:23 -11.3 °C -15.4 °C 34682.8 hPa NW 44.7 km/h 44.7 km/h 60 % 0 mm 353.0 W/m2 CLR
10:28 -11 °C -15.3 °C 34682.8 hPa NW 59.5 km/h 59.5 km/h 59 % 0 mm 394.0 W/m2 CLR
10:33 -11 °C -15.4 °C 34682.8 hPa NW 53.6 km/h 53.6 km/h 58 % 0 mm 410.0 W/m2 CLR
10:38 -11 °C -15.4 °C 34693 hPa North 50.7 km/h 50.7 km/h 58 % 0 mm 427.0 W/m2 CLR
10:44 -11 °C -15.6 °C 34682.8 hPa North 62.1 km/h 62.1 km/h 57 % 0 mm 422.0 W/m2 CLR
10:49 -11 °C -15.6 °C 34693 hPa NNW 56.6 km/h 56.6 km/h 57 % 0 mm 427.0 W/m2 CLR
10:54 -11 °C -15.7 °C 34693 hPa North 75.2 km/h 75.2 km/h 56 % 0 mm 431.0 W/m2 CLR
10:59 -11 °C -15.6 °C 34693 hPa North 50.7 km/h 50.7 km/h 57 % 0 mm 445.0 W/m2 CLR
11:04 -11 °C -15.7 °C 34693 hPa North 71.5 km/h 71.5 km/h 56 % 0 mm 459.0 W/m2 CLR
11:09 -10.7 °C -15.4 °C 34693 hPa North 74.5 km/h 74.5 km/h 56 % 0 mm 466.0 W/m2 CLR
11:14 -10.7 °C -15.4 °C 34682.8 hPa NNW 77.4 km/h 77.4 km/h 56 % 0 mm 473.0 W/m2 CLR
11:19 -10.7 °C -15.4 °C 34682.8 hPa NNW 59.5 km/h 59.5 km/h 56 % 0 mm 482.0 W/m2 CLR
11:24 -10.4 °C -15.3 °C 34682.8 hPa NNW 68.6 km/h 68.6 km/h 55 % 0 mm 489.0 W/m2 CLR
11:29 -10.4 °C -15.3 °C 34693 hPa North 74.5 km/h 74.5 km/h 55 % 0 mm 492.0 W/m2 CLR
11:34 -10.4 °C -15.3 °C 34682.8 hPa NNW 68.6 km/h 68.6 km/h 55 % 0 mm 496.0 W/m2 CLR
11:39 -10.4 °C -15.3 °C 34682.8 hPa North 71.5 km/h 71.5 km/h 55 % 0 mm 501.0 W/m2 CLR
11:44 -10.4 °C -15.3 °C 34682.8 hPa NNW 68.6 km/h 68.6 km/h 55 % 0 mm 519.0 W/m2 CLR
11:49 -10.4 °C -15.3 °C 34682.8 hPa NW 56.6 km/h 56.6 km/h 55 % 0 mm 573.0 W/m2 CLR
11:54 -10.7 °C -15.6 °C 34682.8 hPa North 68.6 km/h 68.6 km/h 55 % 0 mm 181.0 W/m2 CLR
11:59 -10.7 °C -15.4 °C 34682.8 hPa NNE 44.7 km/h 44.7 km/h 56 % 0 mm 555.0 W/m2 CLR
12:04 -10.4 °C -15.3 °C 34682.8 hPa NNW 50.7 km/h 50.7 km/h 55 % 0 mm 552.0 W/m2 CLR
12:09 -10.4 °C -15.4 °C 34682.8 hPa North 68.6 km/h 68.6 km/h 54 % 0 mm 547.0 W/m2 CLR
12:14 -10.4 °C -15.3 °C 34669.3 hPa NNW 53.6 km/h 53.6 km/h 55 % 0 mm 536.0 W/m2 CLR
12:19 -10.4 °C -15.4 °C 34669.3 hPa North 68.6 km/h 68.6 km/h 54 % 0 mm 536.0 W/m2 CLR
12:24 -10.1 °C -15 °C 34669.3 hPa NNW 53.6 km/h 53.6 km/h 55 % 0 mm 540.0 W/m2 CLR
12:29 -10.1 °C -15.2 °C 34659.1 hPa NNW 83.4 km/h 83.4 km/h 54 % 0 mm 540.0 W/m2 CLR
12:34 -10.1 °C -15.2 °C 34659.1 hPa NW 57 km/h 57 km/h 54 % 0 mm 543.0 W/m2 CLR
12:39 -10.1 °C -15.2 °C 34659.1 hPa NNW 56.6 km/h 56.6 km/h 54 % 0 mm 526.0 W/m2 CLR
12:44 -10.1 °C -15.4 °C 34659.1 hPa North 68.6 km/h 68.6 km/h 52 % 0 mm 508.0 W/m2 CLR
12:49 -10.1 °C -15.3 °C 34669.3 hPa North 80.3 km/h 80.3 km/h 53 % 0 mm 526.0 W/m2 CLR
12:54 -10.1 °C -15.4 °C 34659.1 hPa NNW 68.6 km/h 68.6 km/h 52 % 0 mm 536.0 W/m2 CLR
12:59 -10.1 °C -15.3 °C 34659.1 hPa North 65.5 km/h 65.5 km/h 53 % 0 mm 541.0 W/m2 CLR
13:04 -10.1 °C -15.4 °C 34645.6 hPa North 59.5 km/h 59.5 km/h 52 % 0 mm 538.0 W/m2 CLR
13:09 -10.1 °C -15.6 °C 34659.1 hPa NNW 71.5 km/h 71.5 km/h 51 % 0 mm 543.0 W/m2 CLR
13:14 -9.8 °C -15.3 °C 34659.1 hPa North 68.6 km/h 68.6 km/h 51 % 0 mm 540.0 W/m2 CLR
13:19 -10.1 °C -15.4 °C 34659.1 hPa NNW 71.5 km/h 71.5 km/h 52 % 0 mm 540.0 W/m2 CLR
13:24 -9.8 °C -15.3 °C 34645.6 hPa North 59.5 km/h 59.5 km/h 51 % 0 mm 557.0 W/m2 CLR
13:29 -10.1 °C -15.8 °C 34645.6 hPa North 89.3 km/h 89.3 km/h 50 % 0 mm 559.0 W/m2 CLR
13:34 -9.8 °C -15.3 °C 34645.6 hPa NW 62.6 km/h 62.6 km/h 51 % 0 mm 596.0 W/m2 CLR
13:39 -9.8 °C -15.3 °C 34645.6 hPa NNW 83.4 km/h 83.4 km/h 51 % 0 mm 608.0 W/m2 CLR
13:44 -9.8 °C -15.2 °C 34645.6 hPa North 59.5 km/h 59.5 km/h 52 % 0 mm 640.0 W/m2 CLR
13:49 -9.8 °C -15.4 °C 34645.6 hPa NNE 68.6 km/h 68.6 km/h 50 % 0 mm 640.0 W/m2 CLR
13:59 -9.8 °C -15.4 °C 34645.6 hPa NNW 59.5 km/h 59.5 km/h 50 % 0 mm 664.0 W/m2 CLR
14:04 -9.8 °C -15.4 °C 34645.6 hPa NW 69.8 km/h 69.8 km/h 50 % 0 mm 628.0 W/m2 CLR
14:09 -9.8 °C -15.4 °C 34645.6 hPa NNW 71.5 km/h 71.5 km/h 50 % 0 mm 659.0 W/m2 CLR
14:14 -9.4 °C -15.2 °C 34635.4 hPa North 65.5 km/h 65.5 km/h 50 % 0 mm 508.0 W/m2 CLR
14:19 -9.8 °C -15.4 °C 34645.6 hPa North 62.1 km/h 62.1 km/h 50 % 0 mm 584.0 W/m2 CLR
14:24 -10.1 °C -15.6 °C 34645.6 hPa NNW 74.5 km/h 74.5 km/h 51 % 0 mm 376.0 W/m2 CLR
14:29 -10.1 °C -15.4 °C 34645.6 hPa NNW 80.5 km/h 80.5 km/h 52 % 0 mm 352.0 W/m2 CLR
14:34 -10.1 °C -15.4 °C 34645.6 hPa NNW 86.4 km/h 86.4 km/h 52 % 0 mm 429.0 W/m2 CLR
14:44 -10.1 °C -15.3 °C 34645.6 hPa North 53.6 km/h 53.6 km/h 53 % 0 mm 390.0 W/m2 CLR
14:49 -10.1 °C -15.4 °C 34645.6 hPa NW 53.6 km/h 53.6 km/h 52 % 0 mm 422.0 W/m2 CLR
14:54 -10.1 °C -15.4 °C 34645.6 hPa NW 54.4 km/h 54.4 km/h 52 % 0 mm 281.0 W/m2 CLR
14:59 -10.4 °C -15.7 °C 34645.6 hPa North 54.4 km/h 54.4 km/h 52 % 0 mm 332.0 W/m2 CLR
15:04 -10.4 °C -15.7 °C 34645.6 hPa NNW 59.5 km/h 59.5 km/h 52 % 0 mm 278.0 W/m2 CLR
15:14 -10.7 °C -15.9 °C 34659.1 hPa North 69.8 km/h 69.8 km/h 53 % 0 mm 214.0 W/m2 CLR
15:24 -10.7 °C -15.7 °C 34645.6 hPa NW 44.7 km/h 44.7 km/h 54 % 0 mm 188.0 W/m2 CLR
15:29 -10.7 °C -15.7 °C 34645.6 hPa NW 53.6 km/h 53.6 km/h 54 % 0 mm 178.0 W/m2 CLR
15:34 -11 °C -16 °C 34645.6 hPa NNW 65.5 km/h 65.5 km/h 54 % 0 mm 163.0 W/m2 CLR
15:39 -11 °C -15.9 °C 34645.6 hPa NNW 62.6 km/h 62.6 km/h 55 % 0 mm 160.0 W/m2 CLR
15:44 -11 °C -15.9 °C 34645.6 hPa WNW 56.6 km/h 56.6 km/h 55 % 0 mm 160.0 W/m2 CLR
15:49 -11 °C -15.9 °C 34645.6 hPa NNW 53.6 km/h 53.6 km/h 55 % 0 mm 144.0 W/m2 CLR
15:54 -11 °C -15.9 °C 34645.6 hPa North 50.7 km/h 50.7 km/h 55 % 0 mm 132.0 W/m2 CLR
15:59 -11 °C -15.9 °C 34645.6 hPa North 41.7 km/h 41.7 km/h 55 % 0 mm 121.0 W/m2 CLR
16:04 -11 °C -15.9 °C 34645.6 hPa NNW 53.6 km/h 53.6 km/h 55 % 0 mm 118.0 W/m2 CLR
16:09 -11.3 °C -16 °C 34645.6 hPa NW 50.7 km/h 50.7 km/h 56 % 0 mm 105.0 W/m2 CLR
16:14 -11.3 °C -16 °C 34645.6 hPa NW 44.7 km/h 44.7 km/h 56 % 0 mm 102.0 W/m2 CLR
16:19 -11.3 °C -16.2 °C 34659.1 hPa North 50.7 km/h 50.7 km/h 55 % 0 mm 100.0 W/m2 CLR
16:24 -11.3 °C -16.2 °C 34659.1 hPa NNW 62.6 km/h 62.6 km/h 55 % 0 mm 95.0 W/m2 CLR
16:29 -11.3 °C -16.2 °C 34659.1 hPa North 67.3 km/h 67.3 km/h 55 % 0 mm 86.0 W/m2 CLR
16:34 -11.3 °C -16.2 °C 34659.1 hPa NNW 41.7 km/h 41.7 km/h 55 % 0 mm 72.0 W/m2 CLR
16:39 -11.3 °C -16 °C 34669.3 hPa NNW 56.6 km/h 56.6 km/h 56 % 0 mm 63.0 W/m2 FEW
16:44 -11.3 °C -16 °C 34669.3 hPa North 44.7 km/h 44.7 km/h 56 % 0 mm 54.0 W/m2 SCT
16:49 -11.6 °C -16.3 °C 34669.3 hPa NNW 50.7 km/h 50.7 km/h 56 % 0 mm 53.0 W/m2 SCT
16:54 -11.6 °C -16.2 °C 34669.3 hPa NNW 29.8 km/h 29.8 km/h 57 % 0 mm 49.0 W/m2 SCT
16:59 -11.6 °C -16.2 °C 34669.3 hPa North 35.7 km/h 35.7 km/h 57 % 0 mm 42.0 W/m2 BKN
17:04 -11.6 °C -16.2 °C 34669.3 hPa NNW 57 km/h 57 km/h 57 % 0 mm 37.0 W/m2 BKN
17:09 -11.6 °C -16 °C 34669.3 hPa NNW 62.1 km/h 62.1 km/h 58 % 0 mm 32.0 W/m2 BKN
17:14 -11.6 °C -16 °C 34669.3 hPa NNW 50.7 km/h 50.7 km/h 58 % 0 mm 28.0 W/m2 BKN
17:19 -11.6 °C -16 °C 34669.3 hPa NNW 47.6 km/h 47.6 km/h 58 % 0 mm 26.0 W/m2 BKN
17:24 -11.6 °C -16 °C 34669.3 hPa North 41.7 km/h 41.7 km/h 58 % 0 mm 23.0 W/m2 BKN
17:29 -11.6 °C -15.9 °C 34669.3 hPa NNW 29.8 km/h 29.8 km/h 59 % 0 mm 16.0 W/m2 BKN
17:34 -11.6 °C -15.9 °C 34669.3 hPa North 32.8 km/h 32.8 km/h 59 % 0 mm 12.0 W/m2 BKN
17:39 -11.9 °C -16.2 °C 34669.3 hPa NW 33.6 km/h 33.6 km/h 59 % 0 mm 9.0 W/m2 BKN
17:44 -11.9 °C -16.2 °C 34669.3 hPa NW 29.8 km/h 29.8 km/h 59 % 0 mm 5.0 W/m2 OVC
17:49 -11.9 °C -16.2 °C 34669.3 hPa NW 50.7 km/h 50.7 km/h 59 % 0 mm 0.0 W/m2 OVC
17:54 -11.9 °C -16.1 °C 34669.3 hPa NW 44.7 km/h 44.7 km/h 60 % 0 mm 0.0 W/m2 OVC
17:59 -11.9 °C -16.1 °C 34669.3 hPa NW 44.7 km/h 44.7 km/h 60 % 0 mm 0.0 W/m2 CLR
18:04 -12.2 °C -16.3 °C 34669.3 hPa NNW 38.8 km/h 38.8 km/h 60 % 0 mm 0.0 W/m2 CLR
18:09 -12.2 °C -16.2 °C 34669.3 hPa North 68.6 km/h 68.6 km/h 61 % 0 mm 0.0 W/m2 CLR
18:14 -12.2 °C -16.2 °C 34669.3 hPa NNW 38.8 km/h 38.8 km/h 61 % 0 mm 0.0 W/m2 CLR
18:20 -12.2 °C -16.1 °C 34669.3 hPa North 59.5 km/h 59.5 km/h 62 % 0 mm 0.0 W/m2 CLR
18:25 -12.2 °C -16.1 °C 34669.3 hPa North 59.5 km/h 59.5 km/h 62 % 0 mm 0.0 W/m2 CLR
18:30 -12.2 °C -16.1 °C 34669.3 hPa NW 47.6 km/h 47.6 km/h 62 % 0 mm 0.0 W/m2 CLR
18:35 -12.6 °C -16.4 °C 34669.3 hPa NNW 47.6 km/h 47.6 km/h 62 % 0 mm 0.0 W/m2 CLR
18:40 -12.6 °C -16.4 °C 34669.3 hPa NW 56.6 km/h 56.6 km/h 62 % 0 mm 0.0 W/m2 CLR
18:45 -12.6 °C -16.2 °C 34682.8 hPa North 71.5 km/h 71.5 km/h 64 % 0 mm 0.0 W/m2 CLR
18:50 -12.6 °C -16.2 °C 34669.3 hPa NNW 59.5 km/h 59.5 km/h 64 % 0 mm 0.0 W/m2 CLR
18:55 -12.6 °C -16 °C 34669.3 hPa NNW 59.5 km/h 59.5 km/h 65 % 0 mm 0.0 W/m2 CLR
19:00 -12.6 °C -16 °C 34669.3 hPa NW 47.6 km/h 47.6 km/h 65 % 0 mm 0.0 W/m2 CLR
19:05 -12.6 °C -16 °C 34682.8 hPa NNW 53.6 km/h 53.6 km/h 65 % 0 mm 0.0 W/m2 CLR
19:10 -12.8 °C -16.2 °C 34682.8 hPa NNW 59.5 km/h 59.5 km/h 66 % 0 mm 0.0 W/m2 CLR
19:20 -12.8 °C -16.2 °C 34693 hPa NNW 51.8 km/h 51.8 km/h 66 % 0 mm 0.0 W/m2 CLR
19:25 -12.8 °C -16.2 °C 34693 hPa North 41.7 km/h 41.7 km/h 66 % 0 mm 0.0 W/m2 CLR
19:30 -12.8 °C -16.2 °C 34693 hPa NW 32.8 km/h 32.8 km/h 66 % 0 mm 0.0 W/m2 CLR
19:40 -13.2 °C -16.5 °C 34693 hPa NW 50.7 km/h 50.7 km/h 66 % 0 mm 0.0 W/m2 CLR
19:45 -13.2 °C -16.5 °C 34703.1 hPa NW 47.6 km/h 47.6 km/h 66 % 0 mm 0.0 W/m2 CLR
19:50 -13.2 °C -16.5 °C 34693 hPa WNW 32.8 km/h 32.8 km/h 66 % 0 mm 0.0 W/m2 CLR
19:55 -13.2 °C -16.5 °C 34693 hPa NW 36.2 km/h 36.2 km/h 66 % 0 mm 0.0 W/m2 CLR
20:00 -13.2 °C -16.5 °C 34693 hPa NW 50.7 km/h 50.7 km/h 66 % 0 mm 0.0 W/m2 CLR
20:05 -13.2 °C -16.5 °C 34703.1 hPa NW 47.6 km/h 47.6 km/h 66 % 0 mm 0.0 W/m2 CLR
20:11 -13.2 °C -16.5 °C 34693 hPa NW 41.7 km/h 41.7 km/h 66 % 0 mm 0.0 W/m2 CLR
20:16 -13.2 °C -16.3 °C 34703.1 hPa NNW 50.7 km/h 50.7 km/h 67 % 0 mm 0.0 W/m2 CLR
20:21 -13.2 °C -16.3 °C 34693 hPa NW 59.5 km/h 59.5 km/h 67 % 0 mm 0.0 W/m2 CLR
20:26 -13.4 °C -16.6 °C 34703.1 hPa NW 41.7 km/h 41.7 km/h 68 % 0 mm 0.0 W/m2 CLR
20:31 -13.4 °C -16.6 °C 34703.1 hPa NW 50.7 km/h 50.7 km/h 68 % 0 mm 0.0 W/m2 CLR
20:36 -13.4 °C -16.4 °C 34716.7 hPa NW 50.7 km/h 50.7 km/h 69 % 0 mm 0.0 W/m2 CLR
20:41 -13.4 °C -16.4 °C 34716.7 hPa NNW 56.6 km/h 56.6 km/h 69 % 0 mm 0.0 W/m2 CLR
20:46 -13.4 °C -16.3 °C 34703.1 hPa NW 56.6 km/h 56.6 km/h 70 % 0 mm 0.0 W/m2 CLR
20:48 -13.4 °C -16.3 °C 34703.1 hPa NW 56.6 km/h 56.6 km/h 70 % 0 mm 0.0 W/m2 CLR
20:53 -13.4 °C -16.3 °C 34716.7 hPa NW 59.5 km/h 59.5 km/h 70 % 0 mm 0.0 W/m2 CLR
20:58 -13.8 °C -16.5 °C 34716.7 hPa NW 53.6 km/h 53.6 km/h 71 % 0 mm 0.0 W/m2 CLR
21:03 -13.8 °C -16.5 °C 34716.7 hPa NW 50.7 km/h 50.7 km/h 71 % 0 mm 0.0 W/m2 CLR
21:08 -13.8 °C -16.4 °C 34716.7 hPa WNW 50.7 km/h 50.7 km/h 72 % 0 mm 0.0 W/m2 CLR
21:13 -13.8 °C -16.4 °C 34716.7 hPa NW 44.7 km/h 44.7 km/h 72 % 0 mm 0.0 W/m2 CLR
21:18 -13.8 °C -16.4 °C 34716.7 hPa NW 50.7 km/h 50.7 km/h 72 % 0 mm 0.0 W/m2 CLR
21:23 -13.8 °C -16.3 °C 34716.7 hPa NW 62.6 km/h 62.6 km/h 73 % 0 mm 0.0 W/m2 CLR
21:28 -13.8 °C -16.4 °C 34726.8 hPa NW 51.8 km/h 51.8 km/h 72 % 0 mm 0.0 W/m2 CLR
21:33 -13.8 °C -16.3 °C 34726.8 hPa NW 47.6 km/h 47.6 km/h 73 % 0 mm 0.0 W/m2 CLR
21:38 -13.8 °C -16.3 °C 34740.4 hPa NW 35.7 km/h 35.7 km/h 73 % 0 mm 0.0 W/m2 CLR
21:43 -13.8 °C -16.3 °C 34740.4 hPa NW 29.8 km/h 29.8 km/h 73 % 0 mm 0.0 W/m2 CLR
21:48 -14.1 °C -16.6 °C 34740.4 hPa NNW 29.8 km/h 29.8 km/h 73 % 0 mm 0.0 W/m2 CLR
21:53 -14.1 °C -16.6 °C 34740.4 hPa NW 41.7 km/h 41.7 km/h 73 % 0 mm 0.0 W/m2 CLR
21:58 -14.1 °C -16.6 °C 34740.4 hPa NW 38.8 km/h 38.8 km/h 73 % 0 mm 0.0 W/m2 CLR
22:03 -14.1 °C -16.6 °C 34740.4 hPa WNW 38.8 km/h 38.8 km/h 73 % 0 mm 0.0 W/m2 CLR
22:08 -14.1 °C -16.6 °C 34750.5 hPa NW 47.6 km/h 47.6 km/h 73 % 0 mm 0.0 W/m2 CLR
22:13 -14.1 °C -16.6 °C 34740.4 hPa NW 38.8 km/h 38.8 km/h 73 % 0 mm 0.0 W/m2 CLR
22:18 -14.1 °C -16.6 °C 34740.4 hPa NW 38.8 km/h 38.8 km/h 73 % 0 mm 0.0 W/m2 CLR
22:23 -14.1 °C -16.6 °C 34740.4 hPa NW 41.7 km/h 41.7 km/h 73 % 0 mm 0.0 W/m2 CLR
22:28 -14.1 °C -16.6 °C 34750.5 hPa NW 26.9 km/h 26.9 km/h 73 % 0 mm 0.0 W/m2 CLR
22:33 -14.1 °C -16.6 °C 34750.5 hPa NNW 33.6 km/h 33.6 km/h 73 % 0 mm 0.0 W/m2 CLR
22:38 -14.1 °C -16.5 °C 34740.4 hPa NNW 35.7 km/h 35.7 km/h 74 % 0 mm 0.0 W/m2 CLR
22:43 -14.1 °C -16.5 °C 34750.5 hPa NNW 47.6 km/h 47.6 km/h 74 % 0 mm 0.0 W/m2 CLR
22:48 -14.1 °C -16.5 °C 34740.4 hPa NW 32.8 km/h 32.8 km/h 74 % 0 mm 0.0 W/m2 CLR
22:53 -14.1 °C -16.3 °C 34750.5 hPa NW 50.7 km/h 50.7 km/h 75 % 0 mm 0.0 W/m2 CLR
22:58 -14.1 °C -16.3 °C 34740.4 hPa WNW 41.7 km/h 41.7 km/h 75 % 0 mm 0.0 W/m2 CLR
23:03 -14.4 °C -16.7 °C 34750.5 hPa NW 50.7 km/h 50.7 km/h 75 % 0 mm 0.0 W/m2 CLR
23:08 -14.4 °C -16.7 °C 34740.4 hPa NW 53.6 km/h 53.6 km/h 75 % 0 mm 0.0 W/m2 CLR
23:13 -14.1 °C -16.3 °C 34740.4 hPa NNW 41.7 km/h 41.7 km/h 75 % 0 mm 0.0 W/m2 CLR
23:18 -14.1 °C -16.3 °C 34740.4 hPa WNW 44.7 km/h 44.7 km/h 75 % 0 mm 0.0 W/m2 CLR
23:24 -14.4 °C -16.7 °C 34740.4 hPa NNW 35.7 km/h 35.7 km/h 75 % 0 mm 0.0 W/m2 CLR
23:29 -14.4 °C -16.7 °C 34740.4 hPa NW 44.7 km/h 44.7 km/h 75 % 0 mm 0.0 W/m2 CLR
23:34 -14.4 °C -16.7 °C 34740.4 hPa NW 47.6 km/h 47.6 km/h 75 % 0 mm 0.0 W/m2 CLR
23:39 -14.4 °C -16.7 °C 34740.4 hPa NW 47.6 km/h 47.6 km/h 75 % 0 mm 0.0 W/m2 CLR
23:44 -14.4 °C -16.7 °C 34740.4 hPa NW 44.1 km/h 44.1 km/h 75 % 0 mm 0.0 W/m2 CLR
23:49 -14.4 °C -16.8 °C 34726.8 hPa NW 35.7 km/h 35.7 km/h 74 % 0 mm 0.0 W/m2 CLR
23:54 -14.4 °C -16.7 °C 34740.4 hPa NNW 50.7 km/h 50.7 km/h 75 % 0 mm 0.0 W/m2 CLR
23:59 -14.4 °C -16.8 °C 34740.4 hPa NW 50.7 km/h 50.7 km/h 74 % 0 mm 0.0 W/m2 CLR
Lo Temps de Massalio
Compliments of Weather Underground - 1.25 mb